Barcelona Express — VRLX6 — position and weather

sailwx.info

Track history (hours):
 
Tides and Currents Weather Stations Pressure Air Temp Water Temp Dewpoint Dewpoint Depression Visibility Wind Speed Wind Dir Waves Ship Positions

Barcelona Express

Last reported at 2018-Aug-14 06:30 UTC. Time now 2018-Aug-14 07:01 UTC.
Position N 43°21' E 007°31'.

Length 228 m; draft 9.3 m.

Type: Ship (hazmat cat D). MMSI: 477694300.

Date/timePositionNaut miles runAvg speedWind from/ knotsBaromVisibWave heightAir tempDewpointWater temp
2018-Aug-14 06:30N 43°21' E 007°31'612.1
2018-Aug-14 05:59N 43°26' E 007°37'2412.6
2018-Aug-14 04:07N 43°40' E 008°02'512.6
2018-Aug-14 03:45N 43°43' E 008°07'1312.5
2018-Aug-14 02:45N 43°52' E 008°20'412.5
2018-Aug-14 02:27N 43°55' E 008°23'512.3
2018-Aug-14 02:01N 43°59' E 008°29'612.1
2018-Aug-14 01:31N 44°03' E 008°35'612.0
2018-Aug-14 01:01N 44°07' E 008°41'611.7
2018-Aug-14 00:31N 44°11' E 008°46'611.5
2018-Aug-14 00:01N 44°16' E 008°52'611.6
2018-Aug-13 23:31N 44°20' E 008°57'4 8.5
2018-Aug-13 23:00N 44°24' E 008°55'1 1.7
2018-Aug-13 22:28N 44°24' E 008°54'0 0.0
2018-Aug-13 21:58N 44°24' E 008°54'0 0.0
2018-Aug-13 21:28N 44°24' E 008°54'0 0.0
2018-Aug-13 20:55N 44°24' E 008°54'0 0.0
2018-Aug-13 20:28N 44°24' E 008°54'0 0.0
2018-Aug-13 19:58N 44°24' E 008°54'0 0.0
2018-Aug-13 19:25N 44°24' E 008°54'0 0.0
2018-Aug-13 18:58N 44°24' E 008°54'0 0.0
2018-Aug-13 18:28N 44°24' E 008°54'0 0.0
2018-Aug-13 17:55N 44°24' E 008°54'0 0.0
2018-Aug-13 17:28N 44°24' E 008°54'0 0.0
2018-Aug-13 16:58N 44°24' E 008°54'0 0.0
2018-Aug-13 16:28N 44°24' E 008°54'0 0.0
2018-Aug-13 15:58N 44°24' E 008°54'0 0.0
2018-Aug-13 15:28N 44°24' E 008°54'0 0.0
2018-Aug-13 14:58N 44°24' E 008°54'0 0.0
2018-Aug-13 14:28N 44°24' E 008°54'0 0.0
2018-Aug-13 13:58N 44°24' E 008°54'0 0.0
2018-Aug-13 13:28N 44°24' E 008°54'0 0.0
2018-Aug-13 12:58N 44°24' E 008°54'0 0.0
2018-Aug-13 12:28N 44°24' E 008°54'0 0.0
2018-Aug-13 11:58N 44°24' E 008°54'0 0.0
2018-Aug-13 11:28N 44°24' E 008°54'0 0.0
2018-Aug-13 10:58N 44°24' E 008°54'0 0.0
2018-Aug-13 10:22N 44°24' E 008°54'0 0.0
2018-Aug-13 09:55N 44°24' E 008°54'0 0.0
2018-Aug-13 09:28N 44°24' E 008°54'0 0.0
2018-Aug-13 08:55N 44°24' E 008°54'0 0.0
2018-Aug-13 08:28N 44°24' E 008°54'0 0.0
2018-Aug-13 07:58N 44°24' E 008°54'0 0.0
2018-Aug-13 07:28N 44°24' E 008°54'0 0.0
2018-Aug-13 06:58N 44°24' E 008°54'0 0.0
2018-Aug-13 06:25N 44°24' E 008°54'0 0.0
2018-Aug-13 05:59N 44°24' E 008°54'1 2.2
2018-Aug-13 05:31N 44°24' E 008°55'3 6.0
2018-Aug-13 05:00N 44°22' E 008°58'510.0
2018-Aug-13 04:30N 44°17' E 009°01'917.8
2018-Aug-13 04:00N 44°09' E 009°06'1019.5
2018-Aug-13 03:30N 44°01' E 009°15'1019.4
2018-Aug-13 03:00N 43°54' E 009°23'1019.2
2018-Aug-13 02:30N 43°46' E 009°31'918.9
2018-Aug-13 02:00N 43°40' E 009°41'918.9
2018-Aug-13 01:30N 43°34' E 009°51'1019.0
2018-Aug-13 01:00N 43°31' E 010°03'815.2
2018-Aug-13 00:30N 43°31' E 010°14'4 7.2
2018-Aug-13 00:00N 43°33' E 010°18'1 2.2
2018-Aug-12 23:29N 43°34' E 010°18'0 0.0
2018-Aug-12 22:59N 43°34' E 010°18'0 0.0
2018-Aug-12 22:29N 43°34' E 010°18'0 0.0
2018-Aug-12 21:59N 43°34' E 010°18'0 0.0
2018-Aug-12 21:29N 43°34' E 010°18'0 0.0
2018-Aug-12 20:59N 43°34' E 010°18'0 0.0
2018-Aug-12 20:29N 43°34' E 010°18'0 0.0
2018-Aug-12 19:59N 43°34' E 010°18'0 0.0
2018-Aug-12 19:29N 43°34' E 010°18'0 0.1
2018-Aug-12 18:59N 43°34' E 010°18'0 0.0
2018-Aug-12 18:29N 43°34' E 010°18'0 0.0
2018-Aug-12 17:59N 43°34' E 010°18'0 0.0
2018-Aug-12 17:29N 43°34' E 010°18'0 0.0
2018-Aug-12 16:59N 43°34' E 010°18'0 0.0
2018-Aug-12 16:29N 43°34' E 010°18'0 0.0
2018-Aug-12 15:59N 43°34' E 010°18'0 0.0
2018-Aug-12 15:29N 43°34' E 010°18'0 0.0
2018-Aug-12 14:59N 43°34' E 010°18'0 0.1
2018-Aug-12 14:29N 43°34' E 010°18'0 0.0
2018-Aug-12 13:59N 43°34' E 010°18'0 0.0
2018-Aug-12 13:26N 43°34' E 010°18'0 0.0
2018-Aug-12 12:59N 43°34' E 010°18'0 0.0
2018-Aug-12 12:29N 43°34' E 010°18'0 0.1
2018-Aug-12 11:56N 43°34' E 010°18'0 0.1
2018-Aug-12 11:29N 43°34' E 010°18'0 0.1
2018-Aug-12 10:59N 43°34' E 010°18'0 0.0
2018-Aug-12 10:29N 43°34' E 010°18'0 0.0
2018-Aug-12 09:59N 43°34' E 010°18'0 0.0
2018-Aug-12 09:29N 43°34' E 010°18'0 0.0
2018-Aug-12 08:59N 43°34' E 010°18'0 0.0
2018-Aug-12 08:29N 43°34' E 010°18'0 0.1
2018-Aug-12 07:56N 43°34' E 010°18'0 0.1
2018-Aug-12 07:29N 43°34' E 010°18'0 0.2
2018-Aug-12 07:00N 43°34' E 010°18'2 4.9
2018-Aug-12 06:30N 43°32' E 010°17'2 3.3
2018-Aug-12 06:00N 43°31' E 010°15'2 4.2
2018-Aug-12 05:30N 43°29' E 010°14'0 0.4
2018-Aug-12 05:00N 43°29' E 010°14'0 0.7
2018-Aug-12 04:31N 43°29' E 010°14'0 0.4
2018-Aug-12 04:01N 43°29' E 010°14'0 0.5
2018-Aug-12 03:30N 43°29' E 010°13'1 1.3
2018-Aug-12 03:00N 43°28' E 010°13'4 8.8
2018-Aug-12 02:30N 43°24' E 010°11'5 9.5
2018-Aug-12 02:00N 43°19' E 010°10'510.5
2018-Aug-12 01:30N 43°14' E 010°08'713.2
2018-Aug-12 01:00N 43°08' E 010°05'815.9
2018-Aug-12 00:30N 43°00' E 010°02'816.0
2018-Aug-12 00:00N 42°53' E 009°59'916.5
2018-Aug-11 23:28N 42°44' E 009°56'916.7
2018-Aug-11 22:55N 42°35' E 009°53'716.7
2018-Aug-11 22:30N 42°28' E 009°54'1016.5
2018-Aug-11 21:55N 42°19' E 009°56'1017.0
2018-Aug-11 21:19N 42°12' E 010°06'617.4
2018-Aug-11 21:00N 42°09' E 010°12'917.3
2018-Aug-11 20:30N 42°04' E 010°22'917.4
2018-Aug-11 20:00N 41°59' E 010°32'917.1
2018-Aug-11 19:30N 41°54' E 010°41'916.9
2018-Aug-11 18:59N 41°49' E 010°51'816.5
2018-Aug-11 18:30N 41°45' E 010°60'816.3
2018-Aug-11 18:00N 41°40' E 011°08'3316.3
2018-Aug-11 15:57N 41°21' E 011°45'716.6
2018-Aug-11 15:30N 41°17' E 011°54'816.4
2018-Aug-11 15:00N 41°11' E 012°01'816.7
2018-Aug-11 14:30N 41°06' E 012°10'916.4
2018-Aug-11 13:56N 41°01' E 012°20'716.1
2018-Aug-11 13:30N 40°57' E 012°28'916.3
2018-Aug-11 12:57N 40°52' E 012°38'716.4
2018-Aug-11 12:30N 40°48' E 012°46'816.5
2018-Aug-11 12:00N 40°43' E 012°55'816.4
2018-Aug-11 11:30N 40°40' E 013°05'816.6
2018-Aug-11 11:00N 40°38' E 013°16'816.7
2018-Aug-11 10:30N 40°36' E 013°26'816.7
2018-Aug-11 10:00N 40°34' E 013°37'816.7
2018-Aug-11 09:30N 40°31' E 013°47'816.7
2018-Aug-11 09:00N 40°30' E 013°58'917.1
2018-Aug-11 08:30N 40°29' E 014°09'917.1
2018-Aug-11 08:00N 40°29' E 014°20'816.8
2018-Aug-11 07:30N 40°33' E 014°31'816.2
2018-Aug-11 07:00N 40°36' E 014°40'1 0.1
2018-Aug-10 13:41N 40°36' E 014°42'2 8.2
2018-Aug-10 13:30N 40°35' E 014°41'815.7
2018-Aug-10 13:00N 40°32' E 014°31'918.9
2018-Aug-10 12:30N 40°28' E 014°20'918.6
2018-Aug-10 12:00N 40°24' E 014°09'918.3
2018-Aug-10 11:30N 40°21' E 013°58'918.4
2018-Aug-10 11:00N 40°17' E 013°47'5418.3
2018-Aug-10 08:03N 39°57' E 012°41'118.7
2018-Aug-10 08:00N 39°57' E 012°40'9016.5
2018-Aug-10 02:34N 39°23' E 010°52'115.8
2018-Aug-10 02:30N 39°22' E 010°51'3016.3
2018-Aug-10 00:38N 39°12' E 010°14'216.3
2018-Aug-10 00:30N 39°11' E 010°12'816.0
2018-Aug-10 00:00N 39°08' E 010°02'815.6
2018-Aug-09 23:30N 39°05' E 009°53'815.5
2018-Aug-09 23:00N 39°02' E 009°43'815.8
2018-Aug-09 22:30N 38°59' E 009°34'293 7.4
2018-Aug-08 06:57N 39°01' E 003°17'715.5
2018-Aug-08 06:29N 39°02' E 003°08'1015.5
2018-Aug-08 05:51N 39°03' E 002°55'515.6
2018-Aug-08 05:30N 39°04' E 002°48'815.6
2018-Aug-08 05:00N 39°06' E 002°39'815.6
2018-Aug-08 04:28N 39°08' E 002°28'715.5
2018-Aug-08 04:00N 39°10' E 002°19'8015.1
2018-Aug-07 22:40N 39°29' E 000°38'3616.1
2018-Aug-07 20:25N 39°37' W 000°08'4 9.7
2018-Aug-07 20:00N 39°38' W 000°12'1 1.1
2018-Aug-07 19:29N 39°39' W 000°13'0 0.0
2018-Aug-07 18:59N 39°39' W 000°13'0 0.0
2018-Aug-07 17:47N 39°39' W 000°13'0 0.0
2018-Aug-07 17:29N 39°39' W 000°13'0 0.0
2018-Aug-07 16:59N 39°39' W 000°13'0 0.0
2018-Aug-07 16:29N 39°39' W 000°13'0 0.0
2018-Aug-07 15:53N 39°39' W 000°13'0 0.0
2018-Aug-07 15:29N 39°39' W 000°13'0 0.0
2018-Aug-07 13:41N 39°39' W 000°13'0 0.0
2018-Aug-07 13:05N 39°39' W 000°13'0 0.1
2018-Aug-07 12:59N 39°39' W 000°13'0 0.0
2018-Aug-07 12:29N 39°39' W 000°13'0 0.0
2018-Aug-07 11:59N 39°39' W 000°13'0 0.0
2018-Aug-07 11:30N 39°39' W 000°13'0 0.3
2018-Aug-07 10:58N 39°39' W 000°13'3 5.5
2018-Aug-07 10:27N 39°37' W 000°10'4 9.5
2018-Aug-07 10:00N 39°33' W 000°08'6012.5
2018-Aug-07 05:09N 38°39' E 000°28'215.5
2018-Aug-07 05:00N 38°37' E 000°28'815.3
2018-Aug-07 04:28N 38°31' E 000°21'915.7
2018-Aug-07 03:55N 38°24' E 000°15'715.6
2018-Aug-07 03:30N 38°19' E 000°10'815.7
2018-Aug-07 02:59N 38°12' E 000°04'815.7
2018-Aug-07 02:29N 38°06' W 000°02'815.7
2018-Aug-07 01:57N 37°59' W 000°08'715.6
2018-Aug-07 01:30N 37°53' W 000°13'815.6
2018-Aug-07 01:00N 37°47' W 000°19'815.6
2018-Aug-07 00:30N 37°40' W 000°25'815.1
2018-Aug-07 00:00N 37°34' W 000°30'815.0
2018-Aug-06 23:28N 37°29' W 000°37'715.1
2018-Aug-06 23:00N 37°24' W 000°43'815.3
2018-Aug-06 22:30N 37°19' W 000°50'915.5
2018-Aug-06 21:56N 37°13' W 000°59'715.6
2018-Aug-06 21:30N 37°08' W 001°05'815.7
2018-Aug-06 21:00N 37°03' W 001°12'2715.3
2018-Aug-06 19:14N 36°44' W 001°36'17917.2
2018-Aug-06 08:48N 36°01' W 005°12'517.9
2018-Aug-06 08:30N 35°59' W 005°19'816.6
2018-Aug-06 08:00N 35°56' W 005°28'3 0.3
2018-Aug-05 23:55N 35°54' W 005°29'0 0.0
2018-Aug-05 21:49N 35°54' W 005°29'0 0.6
2018-Aug-05 21:18N 35°54' W 005°30'2 4.1
2018-Aug-05 20:56N 35°55' W 005°31'3 0.6
2018-Aug-05 15:38N 35°54' W 005°34'3 8.0
2018-Aug-05 15:13N 35°56' W 005°32'211.7
2018-Aug-05 15:00N 35°58' W 005°30'5 9.9
2018-Aug-05 14:30N 36°01' W 005°25'5 4.7
2018-Aug-05 13:28N 36°06' W 005°24'0 0.1
2018-Aug-05 12:58N 36°06' W 005°24'0 0.1
2018-Aug-05 12:28N 36°06' W 005°24'0 0.0
2018-Aug-05 11:55N 36°06' W 005°24'0 0.0
2018-Aug-05 11:25N 36°06' W 005°24'0 0.0
2018-Aug-05 10:43N 36°06' W 005°24'0 0.1
2018-Aug-05 10:28N 36°06' W 005°24'0 0.1
2018-Aug-05 09:43N 36°06' W 005°24'0 0.1
2018-Aug-05 09:25N 36°06' W 005°24'0 0.0
2018-Aug-05 08:58N 36°06' W 005°24'0 0.0
2018-Aug-05 08:28N 36°06' W 005°24'0 0.0
2018-Aug-05 07:55N 36°06' W 005°24'0 0.1
2018-Aug-05 07:28N 36°06' W 005°24'0 0.1
2018-Aug-05 06:58N 36°06' W 005°24'0 0.2
2018-Aug-05 06:26N 36°06' W 005°24'0 0.8
2018-Aug-05 06:00N 36°06' W 005°24'4 7.8
2018-Aug-05 05:30N 36°04' W 005°19'1 2.9
2018-Aug-05 05:00N 36°04' W 005°18'1 2.1
2018-Aug-05 04:30N 36°03' W 005°17'1 1.3
2018-Aug-05 04:01N 36°04' W 005°17'1 1.6
2018-Aug-05 03:30N 36°04' W 005°18'2 4.0
2018-Aug-05 03:00N 36°04' W 005°21'510.2
2018-Aug-05 02:31N 35°59' W 005°23'612.9
2018-Aug-05 02:00N 35°56' W 005°30'1811.0
2018-Aug-05 00:20N 35°55' W 005°53'4315.1
2018-Aug-04 21:28N 35°54' W 006°46'817.1
2018-Aug-04 21:00N 35°54' W 006°56'3517.5
2018-Aug-04 19:00N 35°55' W 007°40'918.8
2018-Aug-04 18:30N 35°55' W 007°51'1224.0
2018-Aug-04 18:00N 35°54' W 008°06'1 8.8 220 / 81015.0 5.4 31.023.9
2018-Aug-04 17:53N 35°55' W 008°06'718.9
2018-Aug-04 17:29N 35°55' W 008°15'918.9
2018-Aug-04 16:59N 35°55' W 008°26'918.8
2018-Aug-04 16:30N 35°55' W 008°38'1019.2
2018-Aug-04 15:57N 36°01' W 008°49'5018.8
2018-Aug-04 13:17N 36°27' W 009°42'519.0
2018-Aug-04 13:00N 36°29' W 009°48'918.9
2018-Aug-04 12:30N 36°34' W 009°58'713.5
2018-Aug-04 12:00N 36°36' W 010°06'3620.3 360 / 121016.0 5.4 29.018.1
2018-Aug-04 10:12N 36°56' W 010°44'618.7
2018-Aug-04 09:52N 36°59' W 010°51'718.5
2018-Aug-04 09:29N 37°02' W 010°59'1018.5
2018-Aug-04 08:58N 37°06' W 011°09'818.1
2018-Aug-04 08:30N 37°10' W 011°19'918.3
2018-Aug-04 08:00N 37°15' W 011°28'918.4
2018-Aug-04 07:30N 37°20' W 011°38'918.4
2018-Aug-04 07:00N 37°25' W 011°48'918.6
2018-Aug-04 06:30N 37°29' W 011°58'  
Track history (hours):
 
Tides and Currents Weather Stations Pressure Air Temp Water Temp Dewpoint Dewpoint Depression Visibility Wind Speed Wind Dir Waves Ship Positions

Barcelona Express

Last reported at 2018-Aug-14 06:30 UTC. Time now 2018-Aug-14 07:01 UTC.
Position N 43°21' E 007°31'.

Length 228 m; draft 9.3 m.

Type: Ship (hazmat cat D). MMSI: 477694300.

Date/timePositionNaut miles runAvg speedWind from/ knotsBaromVisibWave heightAir tempDewpointWater temp
2018-Aug-14 06:30N 43°21' E 007°31'612.1
2018-Aug-14 05:59N 43°26' E 007°37'2412.6
2018-Aug-14 04:07N 43°40' E 008°02'512.6
2018-Aug-14 03:45N 43°43' E 008°07'1312.5
2018-Aug-14 02:45N 43°52' E 008°20'412.5
2018-Aug-14 02:27N 43°55' E 008°23'512.3
2018-Aug-14 02:01N 43°59' E 008°29'612.1
2018-Aug-14 01:31N 44°03' E 008°35'612.0
2018-Aug-14 01:01N 44°07' E 008°41'611.7
2018-Aug-14 00:31N 44°11' E 008°46'611.5
2018-Aug-14 00:01N 44°16' E 008°52'611.6
2018-Aug-13 23:31N 44°20' E 008°57'4 8.5
2018-Aug-13 23:00N 44°24' E 008°55'1 1.7
2018-Aug-13 22:28N 44°24' E 008°54'0 0.0
2018-Aug-13 21:58N 44°24' E 008°54'0 0.0
2018-Aug-13 21:28N 44°24' E 008°54'0 0.0
2018-Aug-13 20:55N 44°24' E 008°54'0 0.0
2018-Aug-13 20:28N 44°24' E 008°54'0 0.0
2018-Aug-13 19:58N 44°24' E 008°54'0 0.0
2018-Aug-13 19:25N 44°24' E 008°54'0 0.0
2018-Aug-13 18:58N 44°24' E 008°54'0 0.0
2018-Aug-13 18:28N 44°24' E 008°54'0 0.0
2018-Aug-13 17:55N 44°24' E 008°54'0 0.0
2018-Aug-13 17:28N 44°24' E 008°54'0 0.0
2018-Aug-13 16:58N 44°24' E 008°54'0 0.0
2018-Aug-13 16:28N 44°24' E 008°54'0 0.0
2018-Aug-13 15:58N 44°24' E 008°54'0 0.0
2018-Aug-13 15:28N 44°24' E 008°54'0 0.0
2018-Aug-13 14:58N 44°24' E 008°54'0 0.0
2018-Aug-13 14:28N 44°24' E 008°54'0 0.0
2018-Aug-13 13:58N 44°24' E 008°54'0 0.0
2018-Aug-13 13:28N 44°24' E 008°54'0 0.0
2018-Aug-13 12:58N 44°24' E 008°54'0 0.0
2018-Aug-13 12:28N 44°24' E 008°54'0 0.0
2018-Aug-13 11:58N 44°24' E 008°54'0 0.0
2018-Aug-13 11:28N 44°24' E 008°54'0 0.0
2018-Aug-13 10:58N 44°24' E 008°54'0 0.0
2018-Aug-13 10:22N 44°24' E 008°54'0 0.0
2018-Aug-13 09:55N 44°24' E 008°54'0 0.0
2018-Aug-13 09:28N 44°24' E 008°54'0 0.0
2018-Aug-13 08:55N 44°24' E 008°54'0 0.0
2018-Aug-13 08:28N 44°24' E 008°54'0 0.0
2018-Aug-13 07:58N 44°24' E 008°54'0 0.0
2018-Aug-13 07:28N 44°24' E 008°54'0 0.0
2018-Aug-13 06:58N 44°24' E 008°54'0 0.0
2018-Aug-13 06:25N 44°24' E 008°54'0 0.0
2018-Aug-13 05:59N 44°24' E 008°54'1 2.2
2018-Aug-13 05:31N 44°24' E 008°55'3 6.0
2018-Aug-13 05:00N 44°22' E 008°58'510.0
2018-Aug-13 04:30N 44°17' E 009°01'917.8
2018-Aug-13 04:00N 44°09' E 009°06'1019.5
2018-Aug-13 03:30N 44°01' E 009°15'1019.4
2018-Aug-13 03:00N 43°54' E 009°23'1019.2
2018-Aug-13 02:30N 43°46' E 009°31'918.9
2018-Aug-13 02:00N 43°40' E 009°41'918.9
2018-Aug-13 01:30N 43°34' E 009°51'1019.0
2018-Aug-13 01:00N 43°31' E 010°03'815.2
2018-Aug-13 00:30N 43°31' E 010°14'4 7.2
2018-Aug-13 00:00N 43°33' E 010°18'1 2.2
2018-Aug-12 23:29N 43°34' E 010°18'0 0.0
2018-Aug-12 22:59N 43°34' E 010°18'0 0.0
2018-Aug-12 22:29N 43°34' E 010°18'0 0.0
2018-Aug-12 21:59N 43°34' E 010°18'0 0.0
2018-Aug-12 21:29N 43°34' E 010°18'0 0.0
2018-Aug-12 20:59N 43°34' E 010°18'0 0.0
2018-Aug-12 20:29N 43°34' E 010°18'0 0.0
2018-Aug-12 19:59N 43°34' E 010°18'0 0.0
2018-Aug-12 19:29N 43°34' E 010°18'0 0.1
2018-Aug-12 18:59N 43°34' E 010°18'0 0.0
2018-Aug-12 18:29N 43°34' E 010°18'0 0.0
2018-Aug-12 17:59N 43°34' E 010°18'0 0.0
2018-Aug-12 17:29N 43°34' E 010°18'0 0.0
2018-Aug-12 16:59N 43°34' E 010°18'0 0.0
2018-Aug-12 16:29N 43°34' E 010°18'0 0.0
2018-Aug-12 15:59N 43°34' E 010°18'0 0.0
2018-Aug-12 15:29N 43°34' E 010°18'0 0.0
2018-Aug-12 14:59N 43°34' E 010°18'0 0.1
2018-Aug-12 14:29N 43°34' E 010°18'0 0.0
2018-Aug-12 13:59N 43°34' E 010°18'0 0.0
2018-Aug-12 13:26N 43°34' E 010°18'0 0.0
2018-Aug-12 12:59N 43°34' E 010°18'0 0.0
2018-Aug-12 12:29N 43°34' E 010°18'0 0.1
2018-Aug-12 11:56N 43°34' E 010°18'0 0.1
2018-Aug-12 11:29N 43°34' E 010°18'0 0.1
2018-Aug-12 10:59N 43°34' E 010°18'0 0.0
2018-Aug-12 10:29N 43°34' E 010°18'0 0.0
2018-Aug-12 09:59N 43°34' E 010°18'0 0.0
2018-Aug-12 09:29N 43°34' E 010°18'0 0.0
2018-Aug-12 08:59N 43°34' E 010°18'0 0.0
2018-Aug-12 08:29N 43°34' E 010°18'0 0.1
2018-Aug-12 07:56N 43°34' E 010°18'0 0.1
2018-Aug-12 07:29N 43°34' E 010°18'0 0.2
2018-Aug-12 07:00N 43°34' E 010°18'2 4.9
2018-Aug-12 06:30N 43°32' E 010°17'2 3.3
2018-Aug-12 06:00N 43°31' E 010°15'2 4.2
2018-Aug-12 05:30N 43°29' E 010°14'0 0.4
2018-Aug-12 05:00N 43°29' E 010°14'0 0.7
2018-Aug-12 04:31N 43°29' E 010°14'0 0.4
2018-Aug-12 04:01N 43°29' E 010°14'0 0.5
2018-Aug-12 03:30N 43°29' E 010°13'1 1.3
2018-Aug-12 03:00N 43°28' E 010°13'4 8.8
2018-Aug-12 02:30N 43°24' E 010°11'5 9.5
2018-Aug-12 02:00N 43°19' E 010°10'510.5
2018-Aug-12 01:30N 43°14' E 010°08'713.2
2018-Aug-12 01:00N 43°08' E 010°05'815.9
2018-Aug-12 00:30N 43°00' E 010°02'816.0
2018-Aug-12 00:00N 42°53' E 009°59'916.5
2018-Aug-11 23:28N 42°44' E 009°56'916.7
2018-Aug-11 22:55N 42°35' E 009°53'716.7
2018-Aug-11 22:30N 42°28' E 009°54'1016.5
2018-Aug-11 21:55N 42°19' E 009°56'1017.0
2018-Aug-11 21:19N 42°12' E 010°06'617.4
2018-Aug-11 21:00N 42°09' E 010°12'917.3
2018-Aug-11 20:30N 42°04' E 010°22'917.4
2018-Aug-11 20:00N 41°59' E 010°32'917.1
2018-Aug-11 19:30N 41°54' E 010°41'916.9
2018-Aug-11 18:59N 41°49' E 010°51'816.5
2018-Aug-11 18:30N 41°45' E 010°60'816.3
2018-Aug-11 18:00N 41°40' E 011°08'3316.3
2018-Aug-11 15:57N 41°21' E 011°45'716.6
2018-Aug-11 15:30N 41°17' E 011°54'816.4
2018-Aug-11 15:00N 41°11' E 012°01'816.7
2018-Aug-11 14:30N 41°06' E 012°10'916.4
2018-Aug-11 13:56N 41°01' E 012°20'716.1
2018-Aug-11 13:30N 40°57' E 012°28'916.3
2018-Aug-11 12:57N 40°52' E 012°38'716.4
2018-Aug-11 12:30N 40°48' E 012°46'816.5
2018-Aug-11 12:00N 40°43' E 012°55'816.4
2018-Aug-11 11:30N 40°40' E 013°05'816.6
2018-Aug-11 11:00N 40°38' E 013°16'816.7
2018-Aug-11 10:30N 40°36' E 013°26'816.7
2018-Aug-11 10:00N 40°34' E 013°37'816.7
2018-Aug-11 09:30N 40°31' E 013°47'816.7
2018-Aug-11 09:00N 40°30' E 013°58'917.1
2018-Aug-11 08:30N 40°29' E 014°09'917.1
2018-Aug-11 08:00N 40°29' E 014°20'816.8
2018-Aug-11 07:30N 40°33' E 014°31'816.2
2018-Aug-11 07:00N 40°36' E 014°40'1 0.1
2018-Aug-10 13:41N 40°36' E 014°42'2 8.2
2018-Aug-10 13:30N 40°35' E 014°41'815.7
2018-Aug-10 13:00N 40°32' E 014°31'918.9
2018-Aug-10 12:30N 40°28' E 014°20'918.6
2018-Aug-10 12:00N 40°24' E 014°09'918.3
2018-Aug-10 11:30N 40°21' E 013°58'918.4
2018-Aug-10 11:00N 40°17' E 013°47'5418.3
2018-Aug-10 08:03N 39°57' E 012°41'118.7
2018-Aug-10 08:00N 39°57' E 012°40'9016.5
2018-Aug-10 02:34N 39°23' E 010°52'115.8
2018-Aug-10 02:30N 39°22' E 010°51'3016.3
2018-Aug-10 00:38N 39°12' E 010°14'216.3
2018-Aug-10 00:30N 39°11' E 010°12'816.0
2018-Aug-10 00:00N 39°08' E 010°02'815.6
2018-Aug-09 23:30N 39°05' E 009°53'815.5
2018-Aug-09 23:00N 39°02' E 009°43'815.8
2018-Aug-09 22:30N 38°59' E 009°34'293 7.4
2018-Aug-08 06:57N 39°01' E 003°17'715.5
2018-Aug-08 06:29N 39°02' E 003°08'1015.5
2018-Aug-08 05:51N 39°03' E 002°55'515.6
2018-Aug-08 05:30N 39°04' E 002°48'815.6
2018-Aug-08 05:00N 39°06' E 002°39'815.6
2018-Aug-08 04:28N 39°08' E 002°28'715.5
2018-Aug-08 04:00N 39°10' E 002°19'8015.1
2018-Aug-07 22:40N 39°29' E 000°38'3616.1
2018-Aug-07 20:25N 39°37' W 000°08'4 9.7
2018-Aug-07 20:00N 39°38' W 000°12'1 1.1
2018-Aug-07 19:29N 39°39' W 000°13'0 0.0
2018-Aug-07 18:59N 39°39' W 000°13'0 0.0
2018-Aug-07 17:47N 39°39' W 000°13'0 0.0
2018-Aug-07 17:29N 39°39' W 000°13'0 0.0
2018-Aug-07 16:59N 39°39' W 000°13'0 0.0
2018-Aug-07 16:29N 39°39' W 000°13'0 0.0
2018-Aug-07 15:53N 39°39' W 000°13'0 0.0
2018-Aug-07 15:29N 39°39' W 000°13'0 0.0
2018-Aug-07 13:41N 39°39' W 000°13'0 0.0
2018-Aug-07 13:05N 39°39' W 000°13'0 0.1
2018-Aug-07 12:59N 39°39' W 000°13'0 0.0
2018-Aug-07 12:29N 39°39' W 000°13'0 0.0
2018-Aug-07 11:59N 39°39' W 000°13'0 0.0
2018-Aug-07 11:30N 39°39' W 000°13'0 0.3
2018-Aug-07 10:58N 39°39' W 000°13'3 5.5
2018-Aug-07 10:27N 39°37' W 000°10'4 9.5
2018-Aug-07 10:00N 39°33' W 000°08'6012.5
2018-Aug-07 05:09N 38°39' E 000°28'215.5
2018-Aug-07 05:00N 38°37' E 000°28'815.3
2018-Aug-07 04:28N 38°31' E 000°21'915.7
2018-Aug-07 03:55N 38°24' E 000°15'715.6
2018-Aug-07 03:30N 38°19' E 000°10'815.7
2018-Aug-07 02:59N 38°12' E 000°04'815.7
2018-Aug-07 02:29N 38°06' W 000°02'815.7
2018-Aug-07 01:57N 37°59' W 000°08'715.6
2018-Aug-07 01:30N 37°53' W 000°13'815.6
2018-Aug-07 01:00N 37°47' W 000°19'815.6
2018-Aug-07 00:30N 37°40' W 000°25'815.1
2018-Aug-07 00:00N 37°34' W 000°30'815.0
2018-Aug-06 23:28N 37°29' W 000°37'715.1
2018-Aug-06 23:00N 37°24' W 000°43'815.3
2018-Aug-06 22:30N 37°19' W 000°50'915.5
2018-Aug-06 21:56N 37°13' W 000°59'715.6
2018-Aug-06 21:30N 37°08' W 001°05'815.7
2018-Aug-06 21:00N 37°03' W 001°12'2715.3
2018-Aug-06 19:14N 36°44' W 001°36'17917.2
2018-Aug-06 08:48N 36°01' W 005°12'517.9
2018-Aug-06 08:30N 35°59' W 005°19'816.6
2018-Aug-06 08:00N 35°56' W 005°28'3 0.3
2018-Aug-05 23:55N 35°54' W 005°29'0 0.0
2018-Aug-05 21:49N 35°54' W 005°29'0 0.6
2018-Aug-05 21:18N 35°54' W 005°30'2 4.1
2018-Aug-05 20:56N 35°55' W 005°31'3 0.6
2018-Aug-05 15:38N 35°54' W 005°34'3 8.0
2018-Aug-05 15:13N 35°56' W 005°32'211.7
2018-Aug-05 15:00N 35°58' W 005°30'5 9.9
2018-Aug-05 14:30N 36°01' W 005°25'5 4.7
2018-Aug-05 13:28N 36°06' W 005°24'0 0.1
2018-Aug-05 12:58N 36°06' W 005°24'0 0.1
2018-Aug-05 12:28N 36°06' W 005°24'0 0.0
2018-Aug-05 11:55N 36°06' W 005°24'0 0.0
2018-Aug-05 11:25N 36°06' W 005°24'0 0.0
2018-Aug-05 10:43N 36°06' W 005°24'0 0.1
2018-Aug-05 10:28N 36°06' W 005°24'0 0.1
2018-Aug-05 09:43N 36°06' W 005°24'0 0.1
2018-Aug-05 09:25N 36°06' W 005°24'0 0.0
2018-Aug-05 08:58N 36°06' W 005°24'0 0.0
2018-Aug-05 08:28N 36°06' W 005°24'0 0.0
2018-Aug-05 07:55N 36°06' W 005°24'0 0.1
2018-Aug-05 07:28N 36°06' W 005°24'0 0.1
2018-Aug-05 06:58N 36°06' W 005°24'0 0.2
2018-Aug-05 06:26N 36°06' W 005°24'0 0.8
2018-Aug-05 06:00N 36°06' W 005°24'4 7.8
2018-Aug-05 05:30N 36°04' W 005°19'1 2.9
2018-Aug-05 05:00N 36°04' W 005°18'1 2.1
2018-Aug-05 04:30N 36°03' W 005°17'1 1.3
2018-Aug-05 04:01N 36°04' W 005°17'1 1.6
2018-Aug-05 03:30N 36°04' W 005°18'2 4.0
2018-Aug-05 03:00N 36°04' W 005°21'510.2
2018-Aug-05 02:31N 35°59' W 005°23'612.9
2018-Aug-05 02:00N 35°56' W 005°30'1811.0
2018-Aug-05 00:20N 35°55' W 005°53'4315.1
2018-Aug-04 21:28N 35°54' W 006°46'817.1
2018-Aug-04 21:00N 35°54' W 006°56'3517.5
2018-Aug-04 19:00N 35°55' W 007°40'918.8
2018-Aug-04 18:30N 35°55' W 007°51'1224.0
2018-Aug-04 18:00N 35°54' W 008°06'1 8.8 220 / 81015.0 5.4 31.023.9
2018-Aug-04 17:53N 35°55' W 008°06'718.9
2018-Aug-04 17:29N 35°55' W 008°15'918.9
2018-Aug-04 16:59N 35°55' W 008°26'918.8
2018-Aug-04 16:30N 35°55' W 008°38'1019.2
2018-Aug-04 15:57N 36°01' W 008°49'5018.8
2018-Aug-04 13:17N 36°27' W 009°42'519.0
2018-Aug-04 13:00N 36°29' W 009°48'918.9
2018-Aug-04 12:30N 36°34' W 009°58'713.5
2018-Aug-04 12:00N 36°36' W 010°06'3620.3 360 / 121016.0 5.4 29.018.1
2018-Aug-04 10:12N 36°56' W 010°44'618.7
2018-Aug-04 09:52N 36°59' W 010°51'718.5
2018-Aug-04 09:29N 37°02' W 010°59'1018.5
2018-Aug-04 08:58N 37°06' W 011°09'818.1
2018-Aug-04 08:30N 37°10' W 011°19'918.3
2018-Aug-04 08:00N 37°15' W 011°28'918.4
2018-Aug-04 07:30N 37°20' W 011°38'918.4
2018-Aug-04 07:00N 37°25' W 011°48'918.6
2018-Aug-04 06:30N 37°29' W 011°58'  

Dump ship's entire track history